sensor_id;sensor_type;location;lat;lon;timestamp;temperature;humidity
16229;DHT22;8222;51.462;12.630;2023-12-20T00:01:16;7.50;99.90
16229;DHT22;8222;51.462;12.630;2023-12-20T00:03:42;7.50;99.90
16229;DHT22;8222;51.462;12.630;2023-12-20T00:06:12;7.50;99.90
16229;DHT22;8222;51.462;12.630;2023-12-20T00:08:40;7.50;99.90
16229;DHT22;8222;51.462;12.630;2023-12-20T00:11:08;7.50;99.90
16229;DHT22;8222;51.462;12.630;2023-12-20T00:13:34;7.50;99.90
16229;DHT22;8222;51.462;12.630;2023-12-20T00:16:00;7.50;99.90
16229;DHT22;8222;51.462;12.630;2023-12-20T00:18:28;7.70;99.90
16229;DHT22;8222;51.462;12.630;2023-12-20T00:20:56;7.50;99.90
16229;DHT22;8222;51.462;12.630;2023-12-20T00:23:24;7.50;99.90
16229;DHT22;8222;51.462;12.630;2023-12-20T00:25:52;7.50;99.90
16229;DHT22;8222;51.462;12.630;2023-12-20T00:28:18;7.50;99.90
16229;DHT22;8222;51.462;12.630;2023-12-20T00:30:43;7.60;99.90
16229;DHT22;8222;51.462;12.630;2023-12-20T00:33:09;7.40;99.90
16229;DHT22;8222;51.462;12.630;2023-12-20T00:35:35;7.40;99.90
16229;DHT22;8222;51.462;12.630;2023-12-20T00:38:00;7.40;99.90
16229;DHT22;8222;51.462;12.630;2023-12-20T00:40:26;7.40;99.90
16229;DHT22;8222;51.462;12.630;2023-12-20T00:42:54;7.40;99.90
16229;DHT22;8222;51.462;12.630;2023-12-20T00:45:20;7.40;99.90
16229;DHT22;8222;51.462;12.630;2023-12-20T00:47:45;7.40;99.90
16229;DHT22;8222;51.462;12.630;2023-12-20T00:50:11;7.40;99.90
16229;DHT22;8222;51.462;12.630;2023-12-20T00:52:37;7.30;99.90
16229;DHT22;8222;51.462;12.630;2023-12-20T00:55:03;7.30;99.90
16229;DHT22;8222;51.462;12.630;2023-12-20T00:57:31;7.40;99.90
16229;DHT22;8222;51.462;12.630;2023-12-20T00:59:59;7.40;99.90
16229;DHT22;8222;51.462;12.630;2023-12-20T01:02:36;7.30;99.90
16229;DHT22;8222;51.462;12.630;2023-12-20T01:05:02;7.30;99.90
16229;DHT22;8222;51.462;12.630;2023-12-20T01:07:33;7.40;99.90
16229;DHT22;8222;51.462;12.630;2023-12-20T01:09:59;7.40;99.90
16229;DHT22;8222;51.462;12.630;2023-12-20T01:12:25;7.40;99.90
16229;DHT22;8222;51.462;12.630;2023-12-20T01:14:53;7.40;99.90
16229;DHT22;8222;51.462;12.630;2023-12-20T01:17:21;7.40;99.90
16229;DHT22;8222;51.462;12.630;2023-12-20T01:19:46;7.40;99.90
16229;DHT22;8222;51.462;12.630;2023-12-20T01:22:14;7.40;99.90
16229;DHT22;8222;51.462;12.630;2023-12-20T01:24:40;7.40;99.90
16229;DHT22;8222;51.462;12.630;2023-12-20T01:27:08;7.30;99.90
16229;DHT22;8222;51.462;12.630;2023-12-20T01:29:33;7.30;99.90
16229;DHT22;8222;51.462;12.630;2023-12-20T01:32:02;7.40;99.90
16229;DHT22;8222;51.462;12.630;2023-12-20T01:34:27;7.40;99.90
16229;DHT22;8222;51.462;12.630;2023-12-20T01:36:55;7.40;99.90
16229;DHT22;8222;51.462;12.630;2023-12-20T01:39:21;7.30;99.90
16229;DHT22;8222;51.462;12.630;2023-12-20T01:41:46;7.30;99.90
16229;DHT22;8222;51.462;12.630;2023-12-20T01:44:12;7.30;99.90
16229;DHT22;8222;51.462;12.630;2023-12-20T01:46:38;7.30;99.90
16229;DHT22;8222;51.462;12.630;2023-12-20T01:49:04;7.30;99.90
16229;DHT22;8222;51.462;12.630;2023-12-20T01:51:30;7.30;99.90
16229;DHT22;8222;51.462;12.630;2023-12-20T01:53:59;7.30;99.90
16229;DHT22;8222;51.462;12.630;2023-12-20T01:56:26;7.30;99.90
16229;DHT22;8222;51.462;12.630;2023-12-20T01:58:54;7.30;99.90
16229;DHT22;8222;51.462;12.630;2023-12-20T02:01:24;7.30;99.90
16229;DHT22;8222;51.462;12.630;2023-12-20T02:03:51;7.30;99.90
16229;DHT22;8222;51.462;12.630;2023-12-20T02:06:18;7.70;99.90
16229;DHT22;8222;51.462;12.630;2023-12-20T02:08:46;7.30;99.90
16229;DHT22;8222;51.462;12.630;2023-12-20T02:11:16;7.30;99.90
16229;DHT22;8222;51.462;12.630;2023-12-20T02:13:47;7.30;99.90
16229;DHT22;8222;51.462;12.630;2023-12-20T02:16:15;7.30;99.90
16229;DHT22;8222;51.462;12.630;2023-12-20T02:18:42;7.30;99.90
16229;DHT22;8222;51.462;12.630;2023-12-20T02:21:10;7.30;99.90
16229;DHT22;8222;51.462;12.630;2023-12-20T02:23:38;7.30;99.90
16229;DHT22;8222;51.462;12.630;2023-12-20T02:26:08;7.30;99.90
16229;DHT22;8222;51.462;12.630;2023-12-20T02:28:34;7.40;99.90
16229;DHT22;8222;51.462;12.630;2023-12-20T02:31:02;7.40;99.90
16229;DHT22;8222;51.462;12.630;2023-12-20T02:33:28;7.50;99.90
16229;DHT22;8222;51.462;12.630;2023-12-20T02:35:56;7.50;99.90
16229;DHT22;8222;51.462;12.630;2023-12-20T02:38:24;7.50;99.90
16229;DHT22;8222;51.462;12.630;2023-12-20T02:40:56;7.50;99.90
16229;DHT22;8222;51.462;12.630;2023-12-20T02:43:24;7.50;99.90
16229;DHT22;8222;51.462;12.630;2023-12-20T02:45:52;7.50;99.90
16229;DHT22;8222;51.462;12.630;2023-12-20T02:48:18;7.50;99.90
16229;DHT22;8222;51.462;12.630;2023-12-20T02:50:48;7.60;99.90
16229;DHT22;8222;51.462;12.630;2023-12-20T02:53:14;7.50;99.90
16229;DHT22;8222;51.462;12.630;2023-12-20T02:55:42;7.50;99.90
16229;DHT22;8222;51.462;12.630;2023-12-20T02:58:08;7.50;99.90
16229;DHT22;8222;51.462;12.630;2023-12-20T03:00:36;7.40;99.90
16229;DHT22;8222;51.462;12.630;2023-12-20T03:03:06;7.40;99.90
16229;DHT22;8222;51.462;12.630;2023-12-20T03:05:36;7.40;99.90
16229;DHT22;8222;51.462;12.630;2023-12-20T03:08:02;7.40;99.90
16229;DHT22;8222;51.462;12.630;2023-12-20T03:10:28;7.30;99.90
16229;DHT22;8222;51.462;12.630;2023-12-20T03:12:53;7.30;99.90
16229;DHT22;8222;51.462;12.630;2023-12-20T03:15:19;7.30;99.90
16229;DHT22;8222;51.462;12.630;2023-12-20T03:17:45;7.30;99.90
16229;DHT22;8222;51.462;12.630;2023-12-20T03:20:10;7.30;99.90
16229;DHT22;8222;51.462;12.630;2023-12-20T03:22:36;7.30;99.90
16229;DHT22;8222;51.462;12.630;2023-12-20T03:25:04;7.40;99.90
16229;DHT22;8222;51.462;12.630;2023-12-20T03:27:29;7.30;99.90
16229;DHT22;8222;51.462;12.630;2023-12-20T03:29:58;7.40;99.90
16229;DHT22;8222;51.462;12.630;2023-12-20T03:32:23;7.40;99.90
16229;DHT22;8222;51.462;12.630;2023-12-20T03:34:49;7.40;99.90
16229;DHT22;8222;51.462;12.630;2023-12-20T03:37:14;7.40;99.90
16229;DHT22;8222;51.462;12.630;2023-12-20T03:39:42;7.50;99.90
16229;DHT22;8222;51.462;12.630;2023-12-20T03:42:10;7.50;99.90
16229;DHT22;8222;51.462;12.630;2023-12-20T03:44:38;7.50;99.90
16229;DHT22;8222;51.462;12.630;2023-12-20T03:47:05;7.50;99.90
16229;DHT22;8222;51.462;12.630;2023-12-20T03:49:31;7.50;99.90
16229;DHT22;8222;51.462;12.630;2023-12-20T03:51:56;7.40;99.90
16229;DHT22;8222;51.462;12.630;2023-12-20T03:54:27;7.70;99.90
16229;DHT22;8222;51.462;12.630;2023-12-20T03:56:53;7.40;99.90
16229;DHT22;8222;51.462;12.630;2023-12-20T03:59:21;7.40;99.90
16229;DHT22;8222;51.462;12.630;2023-12-20T04:01:46;7.40;99.90
16229;DHT22;8222;51.462;12.630;2023-12-20T04:04:13;7.40;99.90
16229;DHT22;8222;51.462;12.630;2023-12-20T04:06:39;7.40;99.90
16229;DHT22;8222;51.462;12.630;2023-12-20T04:09:07;7.40;99.90
16229;DHT22;8222;51.462;12.630;2023-12-20T04:11:34;7.40;99.90
16229;DHT22;8222;51.462;12.630;2023-12-20T04:14:03;7.90;99.90
16229;DHT22;8222;51.462;12.630;2023-12-20T04:16:31;7.50;99.90
16229;DHT22;8222;51.462;12.630;2023-12-20T04:18:56;7.50;99.90
16229;DHT22;8222;51.462;12.630;2023-12-20T04:21:22;7.50;99.90
16229;DHT22;8222;51.462;12.630;2023-12-20T04:23:53;7.50;99.90
16229;DHT22;8222;51.462;12.630;2023-12-20T04:26:18;7.70;99.90
16229;DHT22;8222;51.462;12.630;2023-12-20T04:28:47;7.50;99.90
16229;DHT22;8222;51.462;12.630;2023-12-20T04:31:13;7.40;99.90
16229;DHT22;8222;51.462;12.630;2023-12-20T04:33:39;7.40;99.90
16229;DHT22;8222;51.462;12.630;2023-12-20T04:36:07;7.50;99.90
16229;DHT22;8222;51.462;12.630;2023-12-20T04:38:34;7.50;99.90
16229;DHT22;8222;51.462;12.630;2023-12-20T04:41:02;7.50;99.90
16229;DHT22;8222;51.462;12.630;2023-12-20T04:43:33;7.50;99.90
16229;DHT22;8222;51.462;12.630;2023-12-20T04:46:01;7.60;99.90
16229;DHT22;8222;51.462;12.630;2023-12-20T04:48:27;7.60;99.90
16229;DHT22;8222;51.462;12.630;2023-12-20T04:50:55;7.60;99.90
16229;DHT22;8222;51.462;12.630;2023-12-20T04:53:21;7.60;99.90
16229;DHT22;8222;51.462;12.630;2023-12-20T04:55:47;7.60;99.90
16229;DHT22;8222;51.462;12.630;2023-12-20T04:58:12;7.70;99.90
16229;DHT22;8222;51.462;12.630;2023-12-20T05:00:38;7.70;99.90
16229;DHT22;8222;51.462;12.630;2023-12-20T05:03:04;8.10;99.90
16229;DHT22;8222;51.462;12.630;2023-12-20T05:05:30;7.60;99.90
16229;DHT22;8222;51.462;12.630;2023-12-20T05:07:55;7.60;99.90
16229;DHT22;8222;51.462;12.630;2023-12-20T05:10:23;7.60;99.90
16229;DHT22;8222;51.462;12.630;2023-12-20T05:12:49;7.60;99.90
16229;DHT22;8222;51.462;12.630;2023-12-20T05:15:15;7.60;99.90
16229;DHT22;8222;51.462;12.630;2023-12-20T05:17:42;7.60;99.90
16229;DHT22;8222;51.462;12.630;2023-12-20T05:20:08;7.60;99.90
16229;DHT22;8222;51.462;12.630;2023-12-20T05:22:34;7.70;99.90
16229;DHT22;8222;51.462;12.630;2023-12-20T05:24:59;7.70;99.90
16229;DHT22;8222;51.462;12.630;2023-12-20T05:27:25;8.20;99.90
16229;DHT22;8222;51.462;12.630;2023-12-20T05:29:51;7.70;99.90
16229;DHT22;8222;51.462;12.630;2023-12-20T05:32:21;7.70;99.90
16229;DHT22;8222;51.462;12.630;2023-12-20T05:34:47;7.70;99.90
16229;DHT22;8222;51.462;12.630;2023-12-20T05:37:15;7.70;99.90
16229;DHT22;8222;51.462;12.630;2023-12-20T05:39:43;7.60;99.90
16229;DHT22;8222;51.462;12.630;2023-12-20T05:42:11;7.70;99.90
16229;DHT22;8222;51.462;12.630;2023-12-20T05:44:36;7.70;99.90
16229;DHT22;8222;51.462;12.630;2023-12-20T05:47:02;7.70;99.90
16229;DHT22;8222;51.462;12.630;2023-12-20T05:49:28;7.70;99.90
16229;DHT22;8222;51.462;12.630;2023-12-20T05:51:57;8.00;99.90
16229;DHT22;8222;51.462;12.630;2023-12-20T05:54:27;7.70;99.90
16229;DHT22;8222;51.462;12.630;2023-12-20T05:56:55;7.60;99.90
16229;DHT22;8222;51.462;12.630;2023-12-20T05:59:25;7.60;99.90
16229;DHT22;8222;51.462;12.630;2023-12-20T06:01:53;7.60;99.90
16229;DHT22;8222;51.462;12.630;2023-12-20T06:04:21;7.60;99.90
16229;DHT22;8222;51.462;12.630;2023-12-20T06:06:47;7.50;99.90
16229;DHT22;8222;51.462;12.630;2023-12-20T06:09:15;7.40;99.90
16229;DHT22;8222;51.462;12.630;2023-12-20T06:11:45;7.40;99.90
16229;DHT22;8222;51.462;12.630;2023-12-20T06:14:11;7.40;99.90
16229;DHT22;8222;51.462;12.630;2023-12-20T06:16:39;7.30;99.90
16229;DHT22;8222;51.462;12.630;2023-12-20T06:19:07;7.20;99.90
16229;DHT22;8222;51.462;12.630;2023-12-20T06:21:38;7.10;99.90
16229;DHT22;8222;51.462;12.630;2023-12-20T06:24:03;7.20;99.90
16229;DHT22;8222;51.462;12.630;2023-12-20T06:26:29;7.20;99.90
16229;DHT22;8222;51.462;12.630;2023-12-20T06:28:55;7.70;99.90
16229;DHT22;8222;51.462;12.630;2023-12-20T06:31:25;7.20;99.90
16229;DHT22;8222;51.462;12.630;2023-12-20T06:33:53;7.10;99.90
16229;DHT22;8222;51.462;12.630;2023-12-20T06:36:25;7.10;99.90
16229;DHT22;8222;51.462;12.630;2023-12-20T06:38:51;7.00;99.90
16229;DHT22;8222;51.462;12.630;2023-12-20T06:41:19;6.90;99.90
16229;DHT22;8222;51.462;12.630;2023-12-20T06:43:52;6.90;99.90
16229;DHT22;8222;51.462;12.630;2023-12-20T06:46:19;6.80;99.90
16229;DHT22;8222;51.462;12.630;2023-12-20T06:48:44;6.80;99.90
16229;DHT22;8222;51.462;12.630;2023-12-20T06:51:15;6.70;99.90
16229;DHT22;8222;51.462;12.630;2023-12-20T06:53:41;6.80;99.90
16229;DHT22;8222;51.462;12.630;2023-12-20T06:56:11;7.00;99.90
16229;DHT22;8222;51.462;12.630;2023-12-20T06:58:37;6.90;99.90
16229;DHT22;8222;51.462;12.630;2023-12-20T07:01:03;6.90;99.90
16229;DHT22;8222;51.462;12.630;2023-12-20T07:03:30;6.90;99.90
16229;DHT22;8222;51.462;12.630;2023-12-20T07:05:56;6.90;99.90
16229;DHT22;8222;51.462;12.630;2023-12-20T07:08:21;6.80;99.90
16229;DHT22;8222;51.462;12.630;2023-12-20T07:10:47;6.80;99.90
16229;DHT22;8222;51.462;12.630;2023-12-20T07:13:13;6.90;99.90
16229;DHT22;8222;51.462;12.630;2023-12-20T07:15:39;6.80;99.90
16229;DHT22;8222;51.462;12.630;2023-12-20T07:18:07;6.80;99.90
16229;DHT22;8222;51.462;12.630;2023-12-20T07:20:33;6.80;99.90
16229;DHT22;8222;51.462;12.630;2023-12-20T07:22:59;6.80;99.90
16229;DHT22;8222;51.462;12.630;2023-12-20T07:25:25;6.90;99.90
16229;DHT22;8222;51.462;12.630;2023-12-20T07:27:52;7.00;99.90
16229;DHT22;8222;51.462;12.630;2023-12-20T07:30:18;7.00;99.90
16229;DHT22;8222;51.462;12.630;2023-12-20T07:32:44;7.00;99.90
16229;DHT22;8222;51.462;12.630;2023-12-20T07:35:10;7.00;99.90
16229;DHT22;8222;51.462;12.630;2023-12-20T07:37:35;7.10;99.90
16229;DHT22;8222;51.462;12.630;2023-12-20T07:40:01;7.10;99.90
16229;DHT22;8222;51.462;12.630;2023-12-20T07:42:27;7.10;99.90
16229;DHT22;8222;51.462;12.630;2023-12-20T07:44:55;7.20;99.90
16229;DHT22;8222;51.462;12.630;2023-12-20T07:47:21;7.20;99.90
16229;DHT22;8222;51.462;12.630;2023-12-20T07:49:48;7.30;99.90
16229;DHT22;8222;51.462;12.630;2023-12-20T07:52:19;7.40;99.90
16229;DHT22;8222;51.462;12.630;2023-12-20T07:54:45;7.40;99.90
16229;DHT22;8222;51.462;12.630;2023-12-20T07:57:11;7.30;99.90
16229;DHT22;8222;51.462;12.630;2023-12-20T07:59:41;7.30;99.90
16229;DHT22;8222;51.462;12.630;2023-12-20T08:02:07;7.40;99.90
16229;DHT22;8222;51.462;12.630;2023-12-20T08:04:35;7.40;99.90
16229;DHT22;8222;51.462;12.630;2023-12-20T08:07:04;7.40;99.90
16229;DHT22;8222;51.462;12.630;2023-12-20T08:09:35;7.50;99.90
16229;DHT22;8222;51.462;12.630;2023-12-20T08:12:02;7.50;99.90
16229;DHT22;8222;51.462;12.630;2023-12-20T08:14:28;7.50;99.90
16229;DHT22;8222;51.462;12.630;2023-12-20T08:16:53;7.60;99.90
16229;DHT22;8222;51.462;12.630;2023-12-20T08:19:21;7.60;99.90
16229;DHT22;8222;51.462;12.630;2023-12-20T08:21:49;7.90;99.90
16229;DHT22;8222;51.462;12.630;2023-12-20T08:24:15;7.70;99.90
16229;DHT22;8222;51.462;12.630;2023-12-20T08:26:43;7.70;99.90
16229;DHT22;8222;51.462;12.630;2023-12-20T08:29:13;7.70;99.90
16229;DHT22;8222;51.462;12.630;2023-12-20T08:31:38;7.70;99.90
16229;DHT22;8222;51.462;12.630;2023-12-20T08:34:04;7.80;99.90
16229;DHT22;8222;51.462;12.630;2023-12-20T08:36:32;7.80;99.90
16229;DHT22;8222;51.462;12.630;2023-12-20T08:39:00;7.80;99.90
16229;DHT22;8222;51.462;12.630;2023-12-20T08:41:35;8.00;99.90
16229;DHT22;8222;51.462;12.630;2023-12-20T08:44:03;7.80;99.90
16229;DHT22;8222;51.462;12.630;2023-12-20T08:46:31;7.80;99.90
16229;DHT22;8222;51.462;12.630;2023-12-20T08:48:57;7.80;99.90
16229;DHT22;8222;51.462;12.630;2023-12-20T08:51:25;7.80;99.90
16229;DHT22;8222;51.462;12.630;2023-12-20T08:53:53;7.80;99.90
16229;DHT22;8222;51.462;12.630;2023-12-20T08:56:21;7.90;99.90
16229;DHT22;8222;51.462;12.630;2023-12-20T08:58:47;7.90;99.90
16229;DHT22;8222;51.462;12.630;2023-12-20T09:01:13;7.90;99.90
16229;DHT22;8222;51.462;12.630;2023-12-20T09:03:39;7.90;99.90
16229;DHT22;8222;51.462;12.630;2023-12-20T09:06:05;7.90;99.90
16229;DHT22;8222;51.462;12.630;2023-12-20T09:08:31;7.90;99.90
16229;DHT22;8222;51.462;12.630;2023-12-20T09:10:57;7.90;99.90
16229;DHT22;8222;51.462;12.630;2023-12-20T09:13:26;8.00;99.90
16229;DHT22;8222;51.462;12.630;2023-12-20T09:15:55;8.00;99.90
16229;DHT22;8222;51.462;12.630;2023-12-20T09:18:21;8.00;99.90
16229;DHT22;8222;51.462;12.630;2023-12-20T09:20:46;8.00;99.90
16229;DHT22;8222;51.462;12.630;2023-12-20T09:23:14;8.20;99.90
16229;DHT22;8222;51.462;12.630;2023-12-20T09:25:40;8.20;99.90
16229;DHT22;8222;51.462;12.630;2023-12-20T09:28:06;8.40;99.90
16229;DHT22;8222;51.462;12.630;2023-12-20T09:30:31;8.40;99.90
16229;DHT22;8222;51.462;12.630;2023-12-20T09:32:57;8.40;99.90
16229;DHT22;8222;51.462;12.630;2023-12-20T09:35:23;8.50;99.90
16229;DHT22;8222;51.462;12.630;2023-12-20T09:37:51;8.50;99.90
16229;DHT22;8222;51.462;12.630;2023-12-20T09:40:26;8.60;99.90
16229;DHT22;8222;51.462;12.630;2023-12-20T09:43:04;8.80;99.90
16229;DHT22;8222;51.462;12.630;2023-12-20T09:45:30;8.90;99.90
16229;DHT22;8222;51.462;12.630;2023-12-20T09:47:57;8.90;99.90
16229;DHT22;8222;51.462;12.630;2023-12-20T09:50:23;8.90;99.90
16229;DHT22;8222;51.462;12.630;2023-12-20T09:52:56;8.90;99.90
16229;DHT22;8222;51.462;12.630;2023-12-20T09:55:25;8.70;99.90
16229;DHT22;8222;51.462;12.630;2023-12-20T09:57:50;8.60;99.90
16229;DHT22;8222;51.462;12.630;2023-12-20T10:00:19;8.60;99.90
16229;DHT22;8222;51.462;12.630;2023-12-20T10:02:59;8.70;99.90
16229;DHT22;8222;51.462;12.630;2023-12-20T10:07:52;8.80;99.90
16229;DHT22;8222;51.462;12.630;2023-12-20T10:10:20;8.80;99.90
16229;DHT22;8222;51.462;12.630;2023-12-20T10:13:10;8.80;99.90
16229;DHT22;8222;51.462;12.630;2023-12-20T10:15:40;8.90;99.90
16229;DHT22;8222;51.462;12.630;2023-12-20T10:18:06;9.00;99.90
16229;DHT22;8222;51.462;12.630;2023-12-20T10:20:34;8.90;99.90
16229;DHT22;8222;51.462;12.630;2023-12-20T10:23:00;8.90;99.90
16229;DHT22;8222;51.462;12.630;2023-12-20T10:25:27;8.80;99.90
16229;DHT22;8222;51.462;12.630;2023-12-20T10:28:16;8.60;99.90
16229;DHT22;8222;51.462;12.630;2023-12-20T10:30:48;8.50;99.90
16229;DHT22;8222;51.462;12.630;2023-12-20T10:33:13;8.50;99.90
16229;DHT22;8222;51.462;12.630;2023-12-20T10:35:42;8.70;99.90
16229;DHT22;8222;51.462;12.630;2023-12-20T10:38:10;8.90;99.90
16229;DHT22;8222;51.462;12.630;2023-12-20T10:40:37;9.00;99.90
16229;DHT22;8222;51.462;12.630;2023-12-20T10:43:08;9.00;99.90
16229;DHT22;8222;51.462;12.630;2023-12-20T10:45:34;9.00;99.90
16229;DHT22;8222;51.462;12.630;2023-12-20T10:48:01;9.10;99.90
16229;DHT22;8222;51.462;12.630;2023-12-20T10:50:32;9.20;99.90
16229;DHT22;8222;51.462;12.630;2023-12-20T10:53:04;9.20;99.90
16229;DHT22;8222;51.462;12.630;2023-12-20T10:55:31;9.30;99.90
16229;DHT22;8222;51.462;12.630;2023-12-20T10:58:09;9.20;99.90
16229;DHT22;8222;51.462;12.630;2023-12-20T11:00:40;9.10;99.90
16229;DHT22;8222;51.462;12.630;2023-12-20T11:03:10;9.20;99.90
16229;DHT22;8222;51.462;12.630;2023-12-20T11:11:24;9.20;99.90
16229;DHT22;8222;51.462;12.630;2023-12-20T11:16:27;9.40;99.90
16229;DHT22;8222;51.462;12.630;2023-12-20T11:18:55;9.40;99.90
16229;DHT22;8222;51.462;12.630;2023-12-20T11:21:21;9.40;99.90
16229;DHT22;8222;51.462;12.630;2023-12-20T11:23:46;9.40;99.90
16229;DHT22;8222;51.462;12.630;2023-12-20T11:26:22;9.40;99.90
16229;DHT22;8222;51.462;12.630;2023-12-20T11:28:51;9.40;99.90
16229;DHT22;8222;51.462;12.630;2023-12-20T11:31:17;9.30;99.90
16229;DHT22;8222;51.462;12.630;2023-12-20T11:33:43;9.30;99.90
16229;DHT22;8222;51.462;12.630;2023-12-20T11:36:18;9.30;99.90
16229;DHT22;8222;51.462;12.630;2023-12-20T11:38:56;9.40;99.90
16229;DHT22;8222;51.462;12.630;2023-12-20T11:41:23;9.40;99.90
16229;DHT22;8222;51.462;12.630;2023-12-20T11:43:55;9.50;99.90
16229;DHT22;8222;51.462;12.630;2023-12-20T11:46:22;9.50;99.90
16229;DHT22;8222;51.462;12.630;2023-12-20T11:48:48;9.50;99.90
16229;DHT22;8222;51.462;12.630;2023-12-20T11:51:18;10.00;99.90
16229;DHT22;8222;51.462;12.630;2023-12-20T11:53:43;9.50;99.90
16229;DHT22;8222;51.462;12.630;2023-12-20T11:56:10;9.60;99.90
16229;DHT22;8222;51.462;12.630;2023-12-20T11:58:36;9.60;99.90
16229;DHT22;8222;51.462;12.630;2023-12-20T12:01:02;9.60;99.90
16229;DHT22;8222;51.462;12.630;2023-12-20T12:03:28;9.70;99.90
16229;DHT22;8222;51.462;12.630;2023-12-20T12:05:54;9.80;99.90
16229;DHT22;8222;51.462;12.630;2023-12-20T12:08:19;9.70;99.90
16229;DHT22;8222;51.462;12.630;2023-12-20T12:10:45;9.90;99.90
16229;DHT22;8222;51.462;12.630;2023-12-20T12:13:13;9.80;99.90
16229;DHT22;8222;51.462;12.630;2023-12-20T12:15:42;9.70;99.90
16229;DHT22;8222;51.462;12.630;2023-12-20T12:18:10;9.70;99.90
16229;DHT22;8222;51.462;12.630;2023-12-20T12:20:38;9.70;99.90
16229;DHT22;8222;51.462;12.630;2023-12-20T12:23:09;9.70;99.90
16229;DHT22;8222;51.462;12.630;2023-12-20T12:25:37;9.80;99.90
16229;DHT22;8222;51.462;12.630;2023-12-20T12:28:05;9.80;99.90
16229;DHT22;8222;51.462;12.630;2023-12-20T12:30:31;9.80;99.90
16229;DHT22;8222;51.462;12.630;2023-12-20T12:32:57;9.70;99.90
16229;DHT22;8222;51.462;12.630;2023-12-20T12:35:25;9.60;99.90
16229;DHT22;8222;51.462;12.630;2023-12-20T12:37:53;9.60;99.90
16229;DHT22;8222;51.462;12.630;2023-12-20T12:40:19;9.70;99.90
16229;DHT22;8222;51.462;12.630;2023-12-20T12:42:45;9.80;99.90
16229;DHT22;8222;51.462;12.630;2023-12-20T12:45:11;9.80;99.90
16229;DHT22;8222;51.462;12.630;2023-12-20T12:47:37;9.90;99.90
16229;DHT22;8222;51.462;12.630;2023-12-20T12:50:04;9.90;99.90
16229;DHT22;8222;51.462;12.630;2023-12-20T12:52:31;10.00;99.90
16229;DHT22;8222;51.462;12.630;2023-12-20T12:54:57;10.00;99.90
16229;DHT22;8222;51.462;12.630;2023-12-20T12:57:24;9.90;99.90
16229;DHT22;8222;51.462;12.630;2023-12-20T12:59:50;9.90;99.90
16229;DHT22;8222;51.462;12.630;2023-12-20T13:02:16;9.90;99.90
16229;DHT22;8222;51.462;12.630;2023-12-20T13:04:42;9.70;99.90
16229;DHT22;8222;51.462;12.630;2023-12-20T13:07:10;9.70;99.90
16229;DHT22;8222;51.462;12.630;2023-12-20T13:09:37;9.60;99.90
16229;DHT22;8222;51.462;12.630;2023-12-20T13:12:03;9.70;99.90
16229;DHT22;8222;51.462;12.630;2023-12-20T13:14:32;9.70;99.90
16229;DHT22;8222;51.462;12.630;2023-12-20T13:16:58;9.70;99.90
16229;DHT22;8222;51.462;12.630;2023-12-20T13:19:24;9.60;99.90
16229;DHT22;8222;51.462;12.630;2023-12-20T13:21:49;9.60;99.90
16229;DHT22;8222;51.462;12.630;2023-12-20T13:24:15;9.50;99.90
16229;DHT22;8222;51.462;12.630;2023-12-20T13:26:41;9.50;99.90
16229;DHT22;8222;51.462;12.630;2023-12-20T13:29:08;9.50;99.90
16229;DHT22;8222;51.462;12.630;2023-12-20T13:31:34;9.40;99.90
16229;DHT22;8222;51.462;12.630;2023-12-20T13:34:01;9.40;99.90
16229;DHT22;8222;51.462;12.630;2023-12-20T13:36:27;9.40;99.90
16229;DHT22;8222;51.462;12.630;2023-12-20T13:38:53;9.40;99.90
16229;DHT22;8222;51.462;12.630;2023-12-20T13:41:21;9.30;99.90
16229;DHT22;8222;51.462;12.630;2023-12-20T13:43:47;9.30;99.90
16229;DHT22;8222;51.462;12.630;2023-12-20T13:46:12;9.30;99.90
16229;DHT22;8222;51.462;12.630;2023-12-20T13:48:40;9.40;99.90
16229;DHT22;8222;51.462;12.630;2023-12-20T13:51:06;9.30;99.90
16229;DHT22;8222;51.462;12.630;2023-12-20T13:53:34;9.30;99.90
16229;DHT22;8222;51.462;12.630;2023-12-20T13:56:00;9.10;99.90
16229;DHT22;8222;51.462;12.630;2023-12-20T13:58:26;9.10;99.90
16229;DHT22;8222;51.462;12.630;2023-12-20T14:00:54;9.10;99.90
16229;DHT22;8222;51.462;12.630;2023-12-20T14:03:22;9.10;99.90
16229;DHT22;8222;51.462;12.630;2023-12-20T14:05:48;9.00;99.90
16229;DHT22;8222;51.462;12.630;2023-12-20T14:08:14;9.00;99.90
16229;DHT22;8222;51.462;12.630;2023-12-20T14:10:42;9.00;99.90
16229;DHT22;8222;51.462;12.630;2023-12-20T14:13:07;9.10;99.90
16229;DHT22;8222;51.462;12.630;2023-12-20T14:15:33;9.00;99.90
16229;DHT22;8222;51.462;12.630;2023-12-20T14:18:04;9.00;99.90
16229;DHT22;8222;51.462;12.630;2023-12-20T14:20:31;8.90;99.90
16229;DHT22;8222;51.462;12.630;2023-12-20T14:23:00;9.00;99.90
16229;DHT22;8222;51.462;12.630;2023-12-20T14:25:28;9.00;99.90
16229;DHT22;8222;51.462;12.630;2023-12-20T14:27:54;8.90;99.90
16229;DHT22;8222;51.462;12.630;2023-12-20T14:30:20;8.80;99.90
16229;DHT22;8222;51.462;12.630;2023-12-20T14:32:45;8.80;99.90
16229;DHT22;8222;51.462;12.630;2023-12-20T14:35:13;8.70;99.90
16229;DHT22;8222;51.462;12.630;2023-12-20T14:37:39;8.70;99.90
16229;DHT22;8222;51.462;12.630;2023-12-20T14:40:09;8.80;99.90
16229;DHT22;8222;51.462;12.630;2023-12-20T14:42:41;8.70;99.90
16229;DHT22;8222;51.462;12.630;2023-12-20T14:45:09;8.60;99.90
16229;DHT22;8222;51.462;12.630;2023-12-20T14:47:37;8.60;99.90
16229;DHT22;8222;51.462;12.630;2023-12-20T14:50:08;8.60;99.90
16229;DHT22;8222;51.462;12.630;2023-12-20T14:52:37;8.60;99.90
16229;DHT22;8222;51.462;12.630;2023-12-20T14:55:03;8.60;99.90
16229;DHT22;8222;51.462;12.630;2023-12-20T14:57:29;8.60;99.90
16229;DHT22;8222;51.462;12.630;2023-12-20T14:59:55;8.60;99.90
16229;DHT22;8222;51.462;12.630;2023-12-20T15:02:23;8.60;99.90
16229;DHT22;8222;51.462;12.630;2023-12-20T15:04:49;8.50;99.90
16229;DHT22;8222;51.462;12.630;2023-12-20T15:07:21;8.50;99.90
16229;DHT22;8222;51.462;12.630;2023-12-20T15:09:47;8.50;99.90
16229;DHT22;8222;51.462;12.630;2023-12-20T15:12:13;8.50;99.90
16229;DHT22;8222;51.462;12.630;2023-12-20T15:14:39;8.40;99.90
16229;DHT22;8222;51.462;12.630;2023-12-20T15:17:07;8.40;99.90
16229;DHT22;8222;51.462;12.630;2023-12-20T15:19:33;8.40;99.90
16229;DHT22;8222;51.462;12.630;2023-12-20T15:22:01;8.40;99.90
16229;DHT22;8222;51.462;12.630;2023-12-20T15:24:29;8.40;99.90
16229;DHT22;8222;51.462;12.630;2023-12-20T15:27:04;8.40;99.90
16229;DHT22;8222;51.462;12.630;2023-12-20T15:29:29;8.30;99.90
16229;DHT22;8222;51.462;12.630;2023-12-20T15:31:57;8.30;99.90
16229;DHT22;8222;51.462;12.630;2023-12-20T15:34:32;8.20;99.90
16229;DHT22;8222;51.462;12.630;2023-12-20T15:37:00;8.20;99.90
16229;DHT22;8222;51.462;12.630;2023-12-20T15:39:26;8.20;99.90
16229;DHT22;8222;51.462;12.630;2023-12-20T15:41:52;8.10;99.90
16229;DHT22;8222;51.462;12.630;2023-12-20T15:44:18;8.20;99.90
16229;DHT22;8222;51.462;12.630;2023-12-20T15:46:44;7.90;99.90
16229;DHT22;8222;51.462;12.630;2023-12-20T15:49:10;7.50;99.90
16229;DHT22;8222;51.462;12.630;2023-12-20T15:51:38;7.00;99.90
16229;DHT22;8222;51.462;12.630;2023-12-20T15:54:04;6.70;99.90
16229;DHT22;8222;51.462;12.630;2023-12-20T15:56:35;6.60;99.90